Time;durP1;ratioP1;P1;durP2;ratioP2;P2;SDS_P1;SDS_P2;PMS_P1;PMS_P2;Temp;Humidity;BMP_temperature;BMP_pressure;BME280_temperature;BME280_humidity;BME280_pressure;Samples;Min_cycle;Max_cycle;Signal;HPM_P1;HPM_P2
2023/10/05 00:02:10;;;;;;;6.43;6.33;;;12.80;99.90;;;;;;5093288;28;21040;-68
2023/10/05 00:04:41;;;;;;;6.37;6.27;;;12.80;99.90;;;;;;5104720;28;20493;-68
2023/10/05 00:07:11;;;;;;;6.97;6.87;;;12.80;99.90;;;;;;5099436;28;20557;-68
2023/10/05 00:09:40;;;;;;;7.17;7.07;;;12.90;99.90;;;;;;5087456;28;20553;-69
2023/10/05 00:12:12;;;;;;;6.67;6.57;;;12.90;99.90;;;;;;5099526;28;20865;-69
2023/10/05 00:14:42;;;;;;;6.97;6.87;;;13.00;99.90;;;;;;5107234;28;20437;-69
2023/10/05 00:17:08;;;;;;;6.83;6.73;;;13.00;99.90;;;;;;5094446;28;20862;-68
2023/10/05 00:19:39;;;;;;;6.60;6.50;;;13.00;99.90;;;;;;5100062;28;20545;-67
2023/10/05 00:22:06;;;;;;;6.80;6.70;;;13.00;99.90;;;;;;5103336;28;20453;-68
2023/10/05 00:24:36;;;;;;;6.93;6.83;;;13.00;99.90;;;;;;5100413;28;20460;-68
2023/10/05 00:27:20;;;;;;;6.83;6.73;;;13.00;99.90;;;;;;5092523;28;20512;-68
2023/10/05 00:29:54;;;;;;;6.63;6.53;;;13.00;99.90;;;;;;5092139;28;20519;-68
2023/10/05 00:32:33;;;;;;;6.80;6.70;;;13.10;99.90;;;;;;5094370;28;20562;-68
2023/10/05 00:35:14;;;;;;;6.70;6.60;;;13.10;99.90;;;;;;5101338;28;20446;-68
2023/10/05 00:37:43;;;;;;;6.30;6.20;;;13.00;99.90;;;;;;5103319;28;20458;-68
2023/10/05 00:40:14;;;;;;;7.00;6.90;;;13.00;99.90;;;;;;5092194;28;20513;-68
2023/10/05 00:42:42;;;;;;;6.80;6.70;;;13.00;99.90;;;;;;5098549;28;20453;-70
2023/10/05 00:45:16;;;;;;;6.90;6.80;;;13.10;99.90;;;;;;5101262;28;20462;-69
2023/10/05 00:47:46;;;;;;;7.07;6.97;;;13.10;99.90;;;;;;5096563;28;20504;-68
2023/10/05 00:50:13;;;;;;;6.77;6.67;;;13.10;99.90;;;;;;5100579;28;20464;-67
2023/10/05 00:52:43;;;;;;;7.07;6.97;;;13.10;99.90;;;;;;5097729;28;20458;-68
2023/10/05 00:55:12;;;;;;;6.90;6.80;;;13.00;99.90;;;;;;5095401;28;20557;-68
2023/10/05 00:57:41;;;;;;;7.13;7.03;;;13.10;99.90;;;;;;5091030;28;20454;-68
2023/10/05 01:00:26;;;;;;;7.17;7.07;;;13.00;99.90;;;;;;5091837;28;20477;-66
2023/10/05 01:03:22;;;;;;;6.83;6.73;;;13.10;99.90;;;;;;5104759;28;20874;-69
2023/10/05 01:06:10;;;;;;;7.33;7.23;;;13.20;99.90;;;;;;5096421;28;20461;-69
2023/10/05 01:08:48;;;;;;;7.23;7.13;;;13.20;99.90;;;;;;5090813;28;20465;-69
2023/10/05 01:11:19;;;;;;;7.70;7.60;;;13.30;99.90;;;;;;5090834;28;20532;-68
2023/10/05 01:13:48;;;;;;;7.00;6.90;;;13.30;99.90;;;;;;5102183;28;20872;-68
2023/10/05 01:16:19;;;;;;;7.63;7.53;;;13.30;99.90;;;;;;5103502;28;20572;-68
2023/10/05 01:18:47;;;;;;;7.67;7.57;;;13.30;99.90;;;;;;5094876;28;20466;-68
2023/10/05 01:21:16;;;;;;;7.23;7.13;;;13.30;99.90;;;;;;5100390;28;20465;-68
2023/10/05 01:23:48;;;;;;;7.10;7.00;;;13.30;99.90;;;;;;5091212;28;20481;-68
2023/10/05 01:26:16;;;;;;;7.20;7.10;;;13.20;99.90;;;;;;5090539;28;20457;-68
2023/10/05 01:28:44;;;;;;;7.50;7.40;;;13.20;99.90;;;;;;5090744;28;20907;-68
2023/10/05 01:31:16;;;;;;;7.20;7.10;;;13.20;99.90;;;;;;5096762;28;20450;-68
2023/10/05 01:33:45;;;;;;;7.20;7.10;;;13.20;99.90;;;;;;5089522;28;20454;-68
2023/10/05 01:36:12;;;;;;;7.60;7.50;;;13.20;99.90;;;;;;5095402;28;20933;-70
2023/10/05 01:38:39;;;;;;;7.00;6.90;;;13.30;99.90;;;;;;5108122;28;20461;-68
2023/10/05 01:41:10;;;;;;;6.97;6.87;;;13.30;99.90;;;;;;5094141;28;20481;-69
2023/10/05 01:43:42;;;;;;;6.37;6.27;;;13.30;99.90;;;;;;5095563;28;20570;-68
2023/10/05 01:46:11;;;;;;;7.33;7.23;;;13.30;99.90;;;;;;5098460;28;21042;-70
2023/10/05 01:48:40;;;;;;;7.93;7.83;;;13.30;99.90;;;;;;5090971;28;20466;-68
2023/10/05 01:51:14;;;;;;;7.27;7.17;;;13.40;99.90;;;;;;5092079;28;20457;-69
2023/10/05 01:53:41;;;;;;;7.50;7.40;;;13.30;99.90;;;;;;5088157;28;20983;-70
2023/10/05 01:56:20;;;;;;;7.20;7.10;;;13.30;99.90;;;;;;5092494;28;20850;-68
2023/10/05 01:58:50;;;;;;;7.60;7.50;;;13.20;99.90;;;;;;5100087;28;20464;-68
2023/10/05 02:01:20;;;;;;;7.63;7.53;;;13.20;99.90;;;;;;5094728;28;20473;-68
2023/10/05 02:03:48;;;;;;;7.80;7.70;;;13.20;99.90;;;;;;5087210;28;20465;-68
2023/10/05 02:06:16;;;;;;;7.70;7.60;;;13.30;99.90;;;;;;5089099;28;20495;-68
2023/10/05 02:08:43;;;;;;;7.70;7.60;;;13.20;99.90;;;;;;5103181;28;20453;-68
2023/10/05 02:11:09;;;;;;;6.60;6.50;;;13.20;99.90;;;;;;5098986;28;20819;-68
2023/10/05 02:13:38;;;;;;;7.07;6.97;;;13.30;99.90;;;;;;5095201;28;20454;-68
2023/10/05 02:16:14;;;;;;;6.87;6.77;;;13.30;99.90;;;;;;5093879;28;20761;-69
2023/10/05 02:18:41;;;;;;;6.80;6.70;;;13.30;99.90;;;;;;5103459;28;20555;-68
2023/10/05 02:21:17;;;;;;;7.40;7.30;;;13.30;99.90;;;;;;5093213;28;20469;-70
2023/10/05 02:23:47;;;;;;;7.27;7.17;;;13.30;99.90;;;;;;5094564;28;20481;-70
2023/10/05 02:26:28;;;;;;;7.00;6.90;;;13.30;99.90;;;;;;5108769;28;20484;-68
2023/10/05 02:28:57;;;;;;;7.13;7.03;;;13.30;99.90;;;;;;5093369;28;20449;-68
2023/10/05 02:31:28;;;;;;;6.90;6.80;;;13.30;99.90;;;;;;5092223;28;20461;-68
2023/10/05 02:33:56;;;;;;;8.00;7.90;;;13.30;99.90;;;;;;5093683;28;20461;-68
2023/10/05 02:36:26;;;;;;;7.67;7.57;;;13.30;99.90;;;;;;5094774;28;21004;-68
2023/10/05 02:38:56;;;;;;;7.37;7.27;;;13.30;99.90;;;;;;5099721;28;20834;-68
2023/10/05 02:41:37;;;;;;;7.70;7.60;;;13.10;99.90;;;;;;5094021;28;21020;-69
2023/10/05 02:44:16;;;;;;;7.27;7.17;;;13.10;99.90;;;;;;5095338;28;20979;-69
2023/10/05 02:46:43;;;;;;;7.47;7.37;;;13.10;99.90;;;;;;5099786;28;20456;-70
2023/10/05 02:49:11;;;;;;;7.20;7.10;;;13.20;99.90;;;;;;5102156;28;20453;-70
2023/10/05 02:51:38;;;;;;;6.30;6.20;;;13.10;99.90;;;;;;5095107;28;20940;-68
2023/10/05 02:54:10;;;;;;;6.50;6.40;;;13.10;99.90;;;;;;5096828;28;20491;-67
2023/10/05 02:56:40;;;;;;;7.27;7.17;;;13.10;99.90;;;;;;5096560;28;20557;-68
2023/10/05 02:59:10;;;;;;;7.17;7.07;;;13.10;99.90;;;;;;5107206;28;20840;-68
2023/10/05 03:01:38;;;;;;;7.73;7.63;;;13.10;99.90;;;;;;5092673;28;20465;-68
2023/10/05 03:04:16;;;;;;;6.70;6.60;;;13.10;99.90;;;;;;5104319;28;20849;-69
2023/10/05 03:06:45;;;;;;;6.70;6.60;;;13.10;99.90;;;;;;5100149;28;20545;-68
2023/10/05 03:09:11;;;;;;;7.37;7.27;;;13.10;99.90;;;;;;5099733;28;20523;-70
2023/10/05 03:11:39;;;;;;;7.53;7.43;;;13.10;99.90;;;;;;5104510;28;21211;-68
2023/10/05 03:14:09;;;;;;;7.17;7.07;;;13.10;99.90;;;;;;5101589;28;20461;-68
2023/10/05 03:16:43;;;;;;;7.17;7.07;;;13.00;99.90;;;;;;5104360;28;20976;-70
2023/10/05 03:19:12;;;;;;;7.03;6.93;;;13.00;99.90;;;;;;5088331;28;20529;-70
2023/10/05 03:21:40;;;;;;;7.00;6.90;;;12.90;99.90;;;;;;5097471;28;20458;-68
2023/10/05 03:24:13;;;;;;;7.43;7.33;;;13.00;99.90;;;;;;5100981;28;20734;-67
2023/10/05 03:26:40;;;;;;;7.30;7.20;;;13.00;99.90;;;;;;5092150;27;20457;-69
2023/10/05 03:29:11;;;;;;;7.40;7.30;;;12.90;99.90;;;;;;5106944;28;20456;-68
2023/10/05 03:31:43;;;;;;;6.97;6.87;;;12.90;99.90;;;;;;5089680;28;20868;-68
2023/10/05 03:34:10;;;;;;;6.53;6.43;;;12.90;99.90;;;;;;5090955;28;20531;-69
2023/10/05 03:36:37;;;;;;;6.80;6.70;;;12.90;99.90;;;;;;5092350;28;20508;-68
2023/10/05 03:39:07;;;;;;;6.30;6.20;;;12.90;99.90;;;;;;5102558;28;20460;-67
2023/10/05 03:41:38;;;;;;;6.90;6.80;;;12.90;99.90;;;;;;5098682;28;20564;-68
2023/10/05 03:44:11;;;;;;;7.23;7.13;;;12.90;99.90;;;;;;5104909;28;20550;-68
2023/10/05 03:46:41;;;;;;;7.03;6.93;;;12.90;99.90;;;;;;5101530;28;20485;-67
2023/10/05 03:49:10;;;;;;;6.97;6.87;;;12.90;99.90;;;;;;5104340;28;20494;-70
2023/10/05 03:51:39;;;;;;;7.00;6.90;;;12.90;99.90;;;;;;5092683;28;20579;-70
2023/10/05 03:54:07;;;;;;;7.00;6.90;;;12.90;99.90;;;;;;5097325;28;20547;-68
2023/10/05 03:56:36;;;;;;;6.70;6.60;;;12.90;99.90;;;;;;5107829;28;21039;-68
2023/10/05 03:59:03;;;;;;;6.80;6.70;;;12.90;99.90;;;;;;5102700;28;20568;-69
2023/10/05 04:01:32;;;;;;;6.97;6.87;;;12.90;99.90;;;;;;5103837;28;20987;-68
2023/10/05 04:04:04;;;;;;;7.03;6.93;;;12.80;99.90;;;;;;5101768;28;20464;-67
2023/10/05 04:06:31;;;;;;;7.10;7.00;;;12.90;99.90;;;;;;5103838;28;20462;-68
2023/10/05 04:08:59;;;;;;;6.90;6.80;;;13.00;99.90;;;;;;5092229;28;20552;-68
2023/10/05 04:11:27;;;;;;;6.73;6.63;;;12.90;99.90;;;;;;5094075;28;20544;-69
2023/10/05 04:13:57;;;;;;;6.77;6.67;;;13.00;99.90;;;;;;5100905;28;20475;-70
2023/10/05 04:16:28;;;;;;;6.57;6.47;;;12.90;99.90;;;;;;5103393;28;20557;-70
2023/10/05 04:18:59;;;;;;;7.23;7.13;;;12.90;99.90;;;;;;5099049;28;20547;-70
2023/10/05 04:21:26;;;;;;;7.00;6.90;;;12.90;99.90;;;;;;5094004;28;20502;-68
2023/10/05 04:23:53;;;;;;;7.30;7.20;;;12.90;99.90;;;;;;5103218;28;20464;-68
2023/10/05 04:26:21;;;;;;;7.80;7.70;;;12.70;99.90;;;;;;5104200;28;20493;-70
2023/10/05 04:28:57;;;;;;;7.50;7.40;;;12.70;99.90;;;;;;5094426;28;20477;-69
2023/10/05 04:31:29;;;;;;;6.50;6.40;;;12.70;99.90;;;;;;5094012;28;20866;-67
2023/10/05 04:33:59;;;;;;;6.73;6.63;;;12.60;99.90;;;;;;5096496;28;20473;-67
2023/10/05 04:36:26;;;;;;;6.83;6.73;;;12.50;99.90;;;;;;5099582;28;20488;-68
2023/10/05 04:38:54;;;;;;;6.70;6.60;;;12.50;99.90;;;;;;5106063;28;20457;-69
2023/10/05 04:41:28;;;;;;;6.30;6.20;;;12.50;99.90;;;;;;5099080;28;20848;-69
2023/10/05 04:43:55;;;;;;;6.80;6.70;;;12.50;99.90;;;;;;5097987;28;20567;-69
2023/10/05 04:46:23;;;;;;;6.60;6.50;;;12.40;99.90;;;;;;5096023;28;20462;-68
2023/10/05 04:49:07;;;;;;;6.80;6.70;;;12.30;99.90;;;;;;5104335;28;20465;-68
2023/10/05 04:51:38;;;;;;;6.63;6.53;;;12.30;99.90;;;;;;5102959;28;20750;-67
2023/10/05 04:54:06;;;;;;;6.90;6.80;;;12.30;99.90;;;;;;5097083;28;21120;-68
2023/10/05 04:56:40;;;;;;;6.50;6.40;;;12.30;99.90;;;;;;5094734;28;20517;-68
2023/10/05 05:02:11;;;;;;;6.27;6.17;;;12.30;99.90;;;;;;5091568;28;20583;-70
2023/10/05 05:04:52;;;;;;;6.27;6.17;;;12.30;99.90;;;;;;5092489;28;20582;-68
2023/10/05 05:07:21;;;;;;;6.33;6.23;;;12.30;99.90;;;;;;5093149;28;20465;-68
2023/10/05 05:09:50;;;;;;;6.07;5.97;;;12.30;99.90;;;;;;5102053;28;20449;-68
2023/10/05 05:12:18;;;;;;;5.90;5.80;;;12.30;99.90;;;;;;5102528;28;20446;-69
2023/10/05 05:14:49;;;;;;;6.37;6.27;;;12.30;99.90;;;;;;5099648;28;20910;-68
2023/10/05 05:17:18;;;;;;;6.17;6.07;;;12.30;99.90;;;;;;5093710;28;20489;-70
2023/10/05 05:19:46;;;;;;;6.30;6.20;;;12.40;99.90;;;;;;5089255;28;20575;-68
2023/10/05 05:22:13;;;;;;;5.63;5.53;;;12.50;99.90;;;;;;5092648;28;20882;-68
2023/10/05 05:24:44;;;;;;;6.57;6.47;;;12.40;99.90;;;;;;5089616;28;20468;-67
2023/10/05 05:27:21;;;;;;;6.77;6.67;;;12.50;99.90;;;;;;5104226;28;20521;-68
2023/10/05 05:29:48;;;;;;;6.70;6.60;;;12.50;99.90;;;;;;5091840;28;20466;-68
2023/10/05 05:32:19;;;;;;;6.20;6.10;;;12.40;99.90;;;;;;5092240;28;20641;-68
2023/10/05 05:34:46;;;;;;;6.23;6.13;;;12.40;99.90;;;;;;5093684;28;20462;-67
2023/10/05 05:37:18;;;;;;;6.27;6.17;;;12.50;99.90;;;;;;5089943;28;20541;-68
2023/10/05 05:39:47;;;;;;;5.80;5.70;;;12.60;99.90;;;;;;5098522;28;20512;-68
2023/10/05 05:42:14;;;;;;;6.90;6.80;;;12.50;99.90;;;;;;5085973;28;20539;-68
2023/10/05 05:44:40;;;;;;;6.53;6.43;;;12.60;99.90;;;;;;5093068;28;20462;-68
2023/10/05 05:47:09;;;;;;;6.60;6.50;;;12.70;99.90;;;;;;5094118;28;20457;-69
2023/10/05 05:49:36;;;;;;;6.90;6.80;;;12.60;99.90;;;;;;5089055;28;20458;-69
2023/10/05 05:52:05;;;;;;;6.30;6.20;;;12.60;99.90;;;;;;5097031;28;20522;-70
2023/10/05 05:54:32;;;;;;;6.90;6.80;;;12.70;99.90;;;;;;5092730;28;20454;-68
2023/10/05 05:57:01;;;;;;;6.53;6.43;;;12.70;99.90;;;;;;5092150;28;20490;-69
2023/10/05 05:59:28;;;;;;;6.40;6.30;;;12.70;99.90;;;;;;5099554;28;20967;-68
2023/10/05 06:01:55;;;;;;;5.93;5.83;;;12.80;99.90;;;;;;5094562;28;20507;-70
2023/10/05 06:04:25;;;;;;;6.10;6.00;;;12.70;99.90;;;;;;5088939;28;21000;-68
2023/10/05 06:06:54;;;;;;;6.07;5.97;;;12.70;99.90;;;;;;5089305;28;20838;-68
2023/10/05 06:09:22;;;;;;;7.10;7.00;;;12.70;99.90;;;;;;5088072;28;20984;-68
2023/10/05 06:11:50;;;;;;;6.20;6.10;;;12.80;99.90;;;;;;5092920;28;20454;-70
2023/10/05 06:14:19;;;;;;;6.60;6.50;;;12.90;99.90;;;;;;5100665;28;20461;-68
2023/10/05 06:16:45;;;;;;;6.30;6.20;;;12.90;99.90;;;;;;5102882;28;21006;-68
2023/10/05 06:19:13;;;;;;;6.27;6.17;;;12.90;99.90;;;;;;5090943;28;20454;-68
2023/10/05 06:21:42;;;;;;;6.03;5.93;;;12.90;99.90;;;;;;5094888;28;20908;-70
2023/10/05 06:24:09;;;;;;;5.90;5.80;;;13.00;99.90;;;;;;5090512;28;20518;-69
2023/10/05 06:26:37;;;;;;;5.93;5.83;;;13.00;99.90;;;;;;5095209;28;20465;-68
2023/10/05 06:29:08;;;;;;;5.73;5.63;;;13.00;99.90;;;;;;5096141;28;20817;-68
2023/10/05 06:31:38;;;;;;;6.00;5.90;;;13.10;99.90;;;;;;5104656;28;20858;-68
2023/10/05 06:34:09;;;;;;;6.37;6.27;;;13.10;99.90;;;;;;5082547;28;20468;-68
2023/10/05 06:36:37;;;;;;;6.70;6.60;;;13.10;99.90;;;;;;5099368;28;21001;-68
2023/10/05 06:39:05;;;;;;;7.00;6.90;;;13.20;99.90;;;;;;5096574;28;20871;-69
2023/10/05 06:41:34;;;;;;;7.13;7.03;;;13.30;99.90;;;;;;5091102;28;20864;-69
2023/10/05 06:44:02;;;;;;;7.10;7.00;;;13.30;99.90;;;;;;5106302;28;20461;-69
2023/10/05 06:46:30;;;;;;;7.03;6.93;;;13.40;99.90;;;;;;5092957;28;20888;-70
2023/10/05 06:48:58;;;;;;;6.70;6.60;;;13.50;99.90;;;;;;5102773;28;20859;-68
2023/10/05 06:51:26;;;;;;;6.77;6.67;;;13.50;99.90;;;;;;5082990;28;20568;-68
2023/10/05 06:53:53;;;;;;;7.10;7.00;;;13.50;99.90;;;;;;5094668;28;20469;-68
2023/10/05 06:56:21;;;;;;;6.73;6.63;;;13.60;99.90;;;;;;5093561;28;20456;-68
2023/10/05 06:58:48;;;;;;;6.80;6.70;;;13.60;99.90;;;;;;5093732;28;20486;-70
2023/10/05 07:01:20;;;;;;;7.83;7.73;;;13.70;99.90;;;;;;5093043;28;20834;-68
2023/10/05 07:03:52;;;;;;;7.63;7.53;;;13.70;99.90;;;;;;5096084;28;20549;-69
2023/10/05 07:06:23;;;;;;;7.90;7.80;;;13.60;99.90;;;;;;5087498;28;20458;-68
2023/10/05 07:08:52;;;;;;;7.27;7.17;;;13.70;99.90;;;;;;5091543;28;20549;-68
2023/10/05 07:11:18;;;;;;;7.67;7.57;;;13.70;99.90;;;;;;5091420;28;20469;-69
2023/10/05 07:13:46;;;;;;;7.40;7.30;;;13.80;99.90;;;;;;5090101;28;20952;-69
2023/10/05 07:16:13;;;;;;;7.83;7.73;;;14.00;99.90;;;;;;5096543;28;20504;-69
2023/10/05 07:18:40;;;;;;;8.17;8.07;;;14.10;99.90;;;;;;5090312;28;20494;-69
2023/10/05 07:21:09;;;;;;;7.70;7.60;;;14.10;99.90;;;;;;5097329;28;20551;-71
2023/10/05 07:23:38;;;;;;;7.83;7.73;;;14.20;99.90;;;;;;5103742;28;20819;-68
2023/10/05 07:26:05;;;;;;;7.80;7.70;;;14.30;99.90;;;;;;5090146;28;21024;-68
2023/10/05 07:28:35;;;;;;;8.23;8.13;;;14.30;99.90;;;;;;5088949;28;20514;-68
2023/10/05 07:31:03;;;;;;;8.27;8.17;;;14.30;99.90;;;;;;5101156;28;20461;-70
2023/10/05 07:33:33;;;;;;;8.50;8.40;;;14.40;99.90;;;;;;5107131;28;20484;-68
2023/10/05 07:36:02;;;;;;;9.10;8.90;;;14.40;99.90;;;;;;5097773;28;20458;-69
2023/10/05 07:38:29;;;;;;;8.90;8.77;;;14.50;99.90;;;;;;5098002;28;20849;-67
2023/10/05 07:40:58;;;;;;;8.20;8.10;;;14.60;99.90;;;;;;5095552;28;20490;-68
2023/10/05 07:43:27;;;;;;;8.50;8.40;;;14.60;99.90;;;;;;5087224;28;20458;-68
2023/10/05 07:45:54;;;;;;;9.17;8.97;;;14.60;99.90;;;;;;5094591;28;20445;-68
2023/10/05 07:48:22;;;;;;;8.97;8.83;;;14.70;99.90;;;;;;5103175;28;20462;-68
2023/10/05 07:50:49;;;;;;;8.53;8.43;;;14.70;99.90;;;;;;5099715;28;20870;-69
2023/10/05 07:53:16;;;;;;;9.00;8.90;;;14.80;99.90;;;;;;5102094;28;20464;-68
2023/10/05 07:55:43;;;;;;;8.70;8.60;;;14.90;99.90;;;;;;5094567;28;20465;-69
2023/10/05 07:58:12;;;;;;;8.63;8.53;;;15.00;99.90;;;;;;5090084;28;20820;-68
2023/10/05 08:00:40;;;;;;;9.53;9.33;;;15.00;99.90;;;;;;5096013;28;20473;-68
2023/10/05 08:03:09;;;;;;;9.40;9.20;;;15.10;99.90;;;;;;5091494;28;20462;-68
2023/10/05 08:05:36;;;;;;;10.00;9.80;;;15.10;99.90;;;;;;5096786;28;20565;-68
2023/10/05 08:08:04;;;;;;;9.27;9.07;;;15.10;99.90;;;;;;5103629;28;20854;-70
2023/10/05 08:10:31;;;;;;;10.60;10.40;;;15.10;99.90;;;;;;5089246;28;20462;-68
2023/10/05 08:13:03;;;;;;;10.43;10.23;;;15.20;99.90;;;;;;5097546;28;20546;-68
2023/10/05 08:15:31;;;;;;;9.90;9.70;;;15.30;99.90;;;;;;5105418;28;20485;-68
2023/10/05 08:17:57;;;;;;;10.40;10.20;;;15.40;99.90;;;;;;5087766;28;20727;-68
2023/10/05 08:20:26;;;;;;;10.20;10.00;;;15.40;99.90;;;;;;5089945;28;20466;-69
2023/10/05 08:22:56;;;;;;;10.70;10.50;;;15.50;99.90;;;;;;5096205;28;20492;-68
2023/10/05 08:25:24;;;;;;;10.67;10.47;;;15.60;99.90;;;;;;5103326;28;20458;-70
2023/10/05 08:27:52;;;;;;;11.80;11.50;;;15.60;99.90;;;;;;5100438;28;20470;-68
2023/10/05 08:30:19;;;;;;;11.37;11.07;;;15.60;99.90;;;;;;5093014;28;20465;-69
2023/10/05 08:32:48;;;;;;;11.70;11.40;;;15.70;99.90;;;;;;5093863;28;20806;-70
2023/10/05 08:35:15;;;;;;;10.77;10.57;;;15.90;99.90;;;;;;5104929;28;20485;-69
2023/10/05 08:37:47;;;;;;;11.53;11.23;;;16.00;99.90;;;;;;5089649;28;20485;-67
2023/10/05 08:40:30;;;;;;;11.97;11.67;;;16.00;99.90;;;;;;5097963;28;20550;-70
2023/10/05 08:43:08;;;;;;;12.00;11.70;;;16.10;99.90;;;;;;5091105;28;20461;-68
2023/10/05 08:45:45;;;;;;;12.17;11.87;;;16.40;99.90;;;;;;5100615;28;20755;-70
2023/10/05 08:48:18;;;;;;;12.07;11.77;;;16.50;99.90;;;;;;5097497;28;20469;-68
2023/10/05 08:50:50;;;;;;;12.10;11.80;;;16.50;99.90;;;;;;5095584;28;21706;-69
2023/10/05 08:53:20;;;;;;;12.10;11.80;;;16.50;99.90;;;;;;5101293;28;20735;-68
2023/10/05 08:55:51;;;;;;;12.80;12.40;;;16.70;99.90;;;;;;5102134;28;20465;-69
2023/10/05 08:58:20;;;;;;;12.50;12.20;;;16.70;99.90;;;;;;5091166;28;20490;-68
2023/10/05 09:00:48;;;;;;;12.40;12.10;;;16.70;99.90;;;;;;5094973;28;20449;-67
2023/10/05 09:03:35;;;;;;;12.40;12.10;;;16.60;99.90;;;;;;5101266;28;20485;-70
2023/10/05 09:06:15;;;;;;;12.00;11.70;;;16.50;99.90;;;;;;5096980;28;20453;-68
2023/10/05 09:08:51;;;;;;;11.70;11.40;;;16.60;99.90;;;;;;5093738;28;20453;-67
2023/10/05 09:11:20;;;;;;;11.90;11.60;;;16.70;99.90;;;;;;5101604;28;20854;-67
2023/10/05 09:13:47;;;;;;;13.00;12.60;;;16.80;99.90;;;;;;5089484;28;20493;-67
2023/10/05 09:16:22;;;;;;;11.73;11.43;;;17.00;99.90;;;;;;5098869;28;20481;-68
2023/10/05 09:18:53;;;;;;;12.30;12.00;;;17.10;99.90;;;;;;5097479;28;20512;-67
2023/10/05 09:21:25;;;;;;;12.93;12.53;;;17.20;99.90;;;;;;5096738;28;20511;-67
2023/10/05 09:23:53;;;;;;;13.03;12.63;;;17.20;99.90;;;;;;5092248;28;20504;-70
2023/10/05 09:26:33;;;;;;;12.80;12.40;;;17.20;99.90;;;;;;5100195;28;20740;-68
2023/10/05 09:29:21;;;;;;;12.20;11.90;;;17.00;99.90;;;;;;5096759;28;20462;-68
2023/10/05 09:31:50;;;;;;;12.47;12.17;;;17.10;99.90;;;;;;5102389;28;20457;-67
2023/10/05 09:34:20;;;;;;;12.43;12.13;;;17.10;99.90;;;;;;5099777;28;20470;-68
2023/10/05 09:36:47;;;;;;;12.50;12.20;;;17.20;99.90;;;;;;5085083;28;20469;-68
2023/10/05 09:39:16;;;;;;;12.53;12.23;;;17.20;99.90;;;;;;5101615;28;20499;-68
2023/10/05 09:41:50;;;;;;;12.10;11.80;;;17.10;99.90;;;;;;5085725;28;20469;-68
2023/10/05 09:44:18;;;;;;;12.67;12.33;;;17.30;99.90;;;;;;5090074;28;20465;-67
2023/10/05 09:46:45;;;;;;;12.57;12.23;;;17.30;99.90;;;;;;5097189;28;20988;-67
2023/10/05 09:49:17;;;;;;;13.23;12.83;;;17.50;99.90;;;;;;5101034;28;20464;-67
2023/10/05 09:51:48;;;;;;;12.93;12.53;;;17.60;99.90;;;;;;5095122;28;20458;-68
2023/10/05 09:54:19;;;;;;;12.90;12.50;;;17.50;99.90;;;;;;5098970;28;20461;-68
2023/10/05 09:56:47;;;;;;;12.73;12.37;;;17.50;99.90;;;;;;5093592;28;20968;-67
2023/10/05 09:59:16;;;;;;;13.03;12.63;;;17.60;99.90;;;;;;5100028;28;20492;-68
2023/10/05 10:01:47;;;;;;;13.17;12.77;;;17.60;99.90;;;;;;5108278;28;20520;-68
2023/10/05 10:04:34;;;;;;;12.50;12.20;;;17.50;99.90;;;;;;5102278;28;20460;-68
2023/10/05 10:07:13;;;;;;;12.40;12.10;;;17.70;99.90;;;;;;5097852;28;20466;-67
2023/10/05 10:09:41;;;;;;;13.00;12.60;;;17.70;99.90;;;;;;5093748;28;21171;-67
2023/10/05 10:12:10;;;;;;;12.40;12.10;;;17.60;99.90;;;;;;5096242;28;20462;-67
2023/10/05 10:14:41;;;;;;;12.73;12.33;;;17.40;99.90;;;;;;5105412;28;20507;-70
2023/10/05 10:17:24;;;;;;;12.60;12.20;;;17.40;99.90;;;;;;5101324;28;20493;-67
2023/10/05 10:20:04;;;;;;;12.90;12.50;;;17.50;99.90;;;;;;5100641;28;20490;-69
2023/10/05 10:22:47;;;;;;;12.80;12.40;;;17.60;99.90;;;;;;5101703;28;20461;-67
2023/10/05 10:25:38;;;;;;;12.70;12.30;;;17.40;99.90;;;;;;5095183;28;20554;-67
2023/10/05 10:28:16;;;;;;;12.43;12.13;;;17.50;99.90;;;;;;5101999;28;20665;-67
2023/10/05 10:30:47;;;;;;;12.47;12.17;;;17.10;99.90;;;;;;5096513;28;20967;-68
2023/10/05 10:33:30;;;;;;;12.40;12.10;;;17.20;99.90;;;;;;5104448;28;20551;-67
2023/10/05 10:35:59;;;;;;;12.53;12.20;;;17.40;99.90;;;;;;5099719;28;20468;-68
2023/10/05 10:38:29;;;;;;;12.53;12.23;;;17.20;99.90;;;;;;5102728;28;21047;-68
2023/10/05 10:41:10;;;;;;;12.30;12.00;;;17.20;99.90;;;;;;5104293;28;20484;-68
2023/10/05 10:43:37;;;;;;;12.60;12.20;;;17.40;99.90;;;;;;5099683;28;20541;-68
2023/10/05 10:46:14;;;;;;;13.00;12.60;;;17.50;99.90;;;;;;5102972;28;20833;-68
2023/10/05 10:48:53;;;;;;;12.70;12.30;;;17.50;99.90;;;;;;5092418;28;20454;-70
2023/10/05 10:51:21;;;;;;;12.43;12.13;;;17.70;99.90;;;;;;5094772;27;20456;-67
2023/10/05 10:53:55;;;;;;;12.80;12.40;;;17.50;99.90;;;;;;5108335;28;20460;-69
2023/10/05 10:56:27;;;;;;;13.00;12.60;;;17.60;99.90;;;;;;5106987;28;20481;-67
2023/10/05 10:59:09;;;;;;;13.00;12.60;;;17.70;99.90;;;;;;5100082;28;20500;-67
2023/10/05 11:01:43;;;;;;;12.77;12.37;;;18.00;99.90;;;;;;5095327;28;20964;-67
2023/10/05 11:04:26;;;;;;;12.40;12.10;;;18.20;99.90;;;;;;5095910;28;20486;-68
2023/10/05 11:06:59;;;;;;;12.50;12.20;;;18.30;99.90;;;;;;5100527;28;20460;-67
2023/10/05 11:09:35;;;;;;;12.37;12.07;;;18.30;99.90;;;;;;5099257;28;20461;-67
2023/10/05 11:12:10;;;;;;;12.00;11.70;;;18.20;99.90;;;;;;5104049;28;20547;-66
2023/10/05 11:14:43;;;;;;;12.50;12.20;;;18.20;99.90;;;;;;5089611;28;20739;-66
2023/10/05 11:17:31;;;;;;;12.33;12.03;;;18.20;99.90;;;;;;5094520;28;20478;-66
2023/10/05 11:20:12;;;;;;;12.40;12.10;;;18.40;99.90;;;;;;5099916;28;20973;-68
2023/10/05 11:22:42;;;;;;;12.67;12.37;;;18.60;99.90;;;;;;5106658;28;20507;-68
2023/10/05 11:25:23;;;;;;;12.60;12.30;;;18.60;99.90;;;;;;5097206;28;20817;-69
2023/10/05 11:27:58;;;;;;;12.50;12.20;;;18.60;99.90;;;;;;5103180;28;20461;-68
2023/10/05 11:30:41;;;;;;;12.40;12.10;;;18.70;99.90;;;;;;5107816;28;20807;-67
2023/10/05 11:33:15;;;;;;;12.30;12.00;;;18.70;99.90;;;;;;5105311;28;20523;-67
2023/10/05 11:35:48;;;;;;;13.20;12.80;;;19.00;99.90;;;;;;5087414;28;20464;-67
2023/10/05 11:38:16;;;;;;;12.50;12.20;;;18.80;99.90;;;;;;5106311;28;20890;-66
2023/10/05 11:40:49;;;;;;;12.30;12.00;;;19.10;99.90;;;;;;5109344;28;20552;-66
2023/10/05 11:43:18;;;;;;;12.30;12.00;;;19.40;99.90;;;;;;5099282;28;20464;-66
2023/10/05 11:45:58;;;;;;;12.30;12.00;;;19.80;99.90;;;;;;5096869;28;20462;-66
2023/10/05 11:48:42;;;;;;;12.13;11.83;;;20.20;99.90;;;;;;5094565;28;20454;-66
2023/10/05 11:51:12;;;;;;;12.97;12.57;;;20.40;99.90;;;;;;5098099;28;20465;-66
2023/10/05 11:53:43;;;;;;;12.87;12.47;;;20.40;99.90;;;;;;5096505;28;20461;-66
2023/10/05 11:56:15;;;;;;;13.37;12.97;;;20.40;99.90;;;;;;5100789;28;20446;-67
2023/10/05 11:58:41;;;;;;;12.40;12.10;;;20.50;99.90;;;;;;5098442;28;20878;-66
2023/10/05 12:01:08;;;;;;;12.60;12.30;;;20.80;99.90;;;;;;5102457;28;20461;-66
2023/10/05 12:03:43;;;;;;;12.77;12.37;;;20.90;99.90;;;;;;5103167;27;20458;-67
2023/10/05 12:06:11;;;;;;;12.90;12.50;;;21.20;99.90;;;;;;5100779;28;20459;-66
2023/10/05 12:08:38;;;;;;;13.10;12.70;;;21.50;99.90;;;;;;5091441;28;20469;-66
2023/10/05 12:11:05;;;;;;;13.03;12.63;;;21.40;99.90;;;;;;5092211;28;20459;-67
2023/10/05 12:13:34;;;;;;;13.50;13.10;;;21.80;99.90;;;;;;5100088;28;20974;-68
2023/10/05 12:16:11;;;;;;;13.00;12.60;;;21.90;99.90;;;;;;5096567;28;20477;-66
2023/10/05 12:18:38;;;;;;;13.00;12.60;;;21.10;99.90;;;;;;5098807;28;20465;-65
2023/10/05 12:21:05;;;;;;;13.20;12.80;;;21.00;99.90;;;;;;5105836;28;20477;-66
2023/10/05 12:23:33;;;;;;;13.00;12.60;;;20.90;99.90;;;;;;5100082;28;20493;-66
2023/10/05 12:26:03;;;;;;;13.37;12.97;;;21.00;99.90;;;;;;5092017;28;20956;-66
2023/10/05 12:28:31;;;;;;;12.90;12.50;;;21.80;99.90;;;;;;5106271;28;20479;-67
2023/10/05 12:31:00;;;;;;;13.20;12.80;;;22.30;99.90;;;;;;5101390;28;20464;-66
2023/10/05 12:33:27;;;;;;;13.60;13.20;;;22.80;99.90;;;;;;5100316;28;20462;-65
2023/10/05 12:35:55;;;;;;;13.90;13.50;;;22.10;99.90;;;;;;5095653;28;20466;-66
2023/10/05 12:38:22;;;;;;;14.10;13.70;;;21.80;99.90;;;;;;5101526;28;20455;-67
2023/10/05 12:40:49;;;;;;;13.80;13.40;;;21.60;99.90;;;;;;5107012;28;20490;-66
2023/10/05 12:43:16;;;;;;;13.60;13.20;;;21.30;99.90;;;;;;5102167;28;20918;-67
2023/10/05 12:45:44;;;;;;;14.17;13.77;;;21.70;99.90;;;;;;5086226;28;20470;-66
2023/10/05 12:48:12;;;;;;;13.60;13.20;;;21.90;99.90;;;;;;5101065;28;20502;-66
2023/10/05 12:50:41;;;;;;;13.70;13.30;;;22.20;99.90;;;;;;5107744;28;20510;-65
2023/10/05 12:53:08;;;;;;;13.97;13.57;;;22.50;99.90;;;;;;5096584;28;21246;-65
2023/10/05 12:55:37;;;;;;;14.13;13.73;;;22.50;99.90;;;;;;5102725;28;20951;-65
2023/10/05 12:58:08;;;;;;;13.90;13.50;;;21.90;99.90;;;;;;5097141;28;20462;-66
2023/10/05 13:00:40;;;;;;;14.00;13.60;;;21.20;99.90;;;;;;5096138;28;21054;-65